Time;durP1;ratioP1;P1;durP2;ratioP2;P2;SDS_P1;SDS_P2;PMS_P1;PMS_P2;Temp;Humidity;BMP_temperature;BMP_pressure;BME280_temperature;BME280_humidity;BME280_pressure;Samples;Min_cycle;Max_cycle;Signal;HPM_P1;HPM_P2
2023/12/04 00:01:12;;;;;;;45.47;14.05;;;-6.00;99.90;;;;;;4969853;28;20042;-62
2023/12/04 00:03:38;;;;;;;44.92;13.80;;;-5.60;99.90;;;;;;4969916;28;20030;-61
2023/12/04 00:06:04;;;;;;;38.90;12.02;;;-6.10;99.90;;;;;;4969407;28;20089;-62
2023/12/04 00:08:30;;;;;;;40.65;13.25;;;-6.30;99.90;;;;;;4969513;28;20054;-62
2023/12/04 00:10:55;;;;;;;38.58;12.23;;;-6.30;99.90;;;;;;4969962;28;20062;-62
2023/12/04 00:13:21;;;;;;;38.70;12.50;;;-6.40;99.90;;;;;;4968966;28;20102;-62
2023/12/04 00:15:46;;;;;;;48.30;14.02;;;-6.20;99.90;;;;;;4971126;28;20030;-61
2023/12/04 00:18:12;;;;;;;42.13;12.13;;;-5.70;99.90;;;;;;4969057;28;20030;-61
2023/12/04 00:20:37;;;;;;;24.38;8.73;;;-6.00;99.90;;;;;;4969970;28;20031;-61
2023/12/04 00:23:03;;;;;;;23.52;8.15;;;-5.70;99.90;;;;;;4968988;28;20463;-63
2023/12/04 00:25:29;;;;;;;32.53;10.35;;;-5.00;99.90;;;;;;4974267;28;20062;-61
2023/12/04 00:27:54;;;;;;;34.42;10.68;;;-5.20;99.90;;;;;;4972765;28;20199;-61
2023/12/04 00:30:20;;;;;;;38.20;11.77;;;-5.20;99.90;;;;;;4969253;28;20085;-62
2023/12/04 00:32:45;;;;;;;36.97;11.60;;;-5.30;99.90;;;;;;4979606;28;20050;-61
2023/12/04 00:35:11;;;;;;;48.55;14.27;;;-5.60;99.90;;;;;;4978131;28;20031;-61
2023/12/04 00:37:38;;;;;;;33.58;10.98;;;-5.40;99.90;;;;;;4970635;28;20480;-61
2023/12/04 00:40:05;;;;;;;22.52;8.02;;;-5.10;99.90;;;;;;4970134;28;20034;-63
2023/12/04 00:42:31;;;;;;;36.85;11.18;;;-4.70;99.90;;;;;;4969913;28;20069;-62
2023/12/04 00:44:56;;;;;;;34.38;11.25;;;-4.90;99.90;;;;;;4974701;28;20786;-62
2023/12/04 00:47:22;;;;;;;30.48;10.55;;;-5.00;99.90;;;;;;4988172;28;20611;-61
2023/12/04 00:49:48;;;;;;;25.83;9.32;;;-5.10;99.90;;;;;;4974193;28;20110;-61
2023/12/04 00:52:13;;;;;;;22.08;6.82;;;-4.90;99.90;;;;;;4974747;28;20037;-62
2023/12/04 00:54:40;;;;;;;15.60;5.75;;;-4.60;99.90;;;;;;4979720;28;20043;-61
2023/12/04 00:57:06;;;;;;;27.17;9.38;;;-4.10;99.90;;;;;;4990853;28;20026;-62
2023/12/04 00:59:32;;;;;;;17.45;6.03;;;-4.40;99.90;;;;;;4983897;28;20102;-61
2023/12/04 01:01:57;;;;;;;18.90;6.65;;;-4.50;99.90;;;;;;4972969;28;20042;-61
2023/12/04 01:04:23;;;;;;;36.10;11.43;;;-4.10;99.90;;;;;;4972672;28;20030;-62
2023/12/04 01:06:48;;;;;;;18.88;7.28;;;-4.70;99.90;;;;;;4971529;28;20030;-61
2023/12/04 01:09:14;;;;;;;17.30;6.47;;;-5.10;99.90;;;;;;4974905;28;20035;-61
2023/12/04 01:11:40;;;;;;;20.23;6.70;;;-4.70;99.90;;;;;;4982859;28;20085;-62
2023/12/04 01:14:05;;;;;;;45.92;13.98;;;-4.20;99.90;;;;;;4972185;28;20515;-64
2023/12/04 01:16:31;;;;;;;41.50;12.77;;;-4.40;99.90;;;;;;4974289;28;20045;-61
2023/12/04 01:18:57;;;;;;;30.45;10.07;;;-5.60;99.90;;;;;;4973082;28;20043;-61
2023/12/04 01:21:22;;;;;;;23.17;8.13;;;-5.70;99.90;;;;;;4977227;28;20045;-61
2023/12/04 01:23:48;;;;;;;18.00;6.63;;;-5.30;99.90;;;;;;4992497;28;20395;-62
2023/12/04 01:26:13;;;;;;;22.13;7.85;;;-4.80;99.90;;;;;;4981932;28;20039;-62
2023/12/04 01:28:39;;;;;;;22.27;6.65;;;-4.40;99.90;;;;;;4977488;28;20033;-61
2023/12/04 01:31:06;;;;;;;19.38;7.90;;;-4.10;99.90;;;;;;4969999;28;20740;-63
2023/12/04 01:33:32;;;;;;;19.33;6.68;;;-3.90;99.90;;;;;;4990809;28;20030;-62
2023/12/04 01:35:57;;;;;;;25.15;8.05;;;-3.80;99.90;;;;;;4983764;28;20523;-61
2023/12/04 01:38:23;;;;;;;17.02;6.80;;;-3.70;99.90;;;;;;4972351;28;20125;-61
2023/12/04 01:40:49;;;;;;;19.77;7.63;;;-3.70;99.90;;;;;;4977690;28;20105;-61
2023/12/04 01:43:14;;;;;;;20.10;7.32;;;-3.70;99.90;;;;;;4991006;28;20430;-61
2023/12/04 01:45:40;;;;;;;27.58;9.20;;;-3.80;99.90;;;;;;4990314;28;20035;-62
2023/12/04 01:48:08;;;;;;;20.95;7.20;;;-3.80;99.90;;;;;;4972098;28;20022;-63
2023/12/04 01:50:35;;;;;;;19.88;7.75;;;-3.90;99.90;;;;;;4976431;28;20490;-62
2023/12/04 01:53:01;;;;;;;20.67;8.13;;;-3.90;99.90;;;;;;4983512;28;20034;-62
2023/12/04 01:55:28;;;;;;;27.85;9.05;;;-3.90;99.90;;;;;;4983014;28;20039;-61
2023/12/04 01:57:56;;;;;;;27.67;8.13;;;-3.90;99.90;;;;;;4983076;28;20022;-62
2023/12/04 02:00:21;;;;;;;23.55;8.10;;;-4.00;99.90;;;;;;4987162;28;20030;-62
2023/12/04 02:02:47;;;;;;;21.70;7.45;;;-4.00;99.90;;;;;;4969260;28;20038;-61
2023/12/04 02:05:14;;;;;;;21.55;7.28;;;-4.00;99.90;;;;;;4988110;28;20488;-62
2023/12/04 02:07:43;;;;;;;22.27;8.07;;;-4.10;99.90;;;;;;4974676;28;20063;-61
2023/12/04 02:10:09;;;;;;;22.33;7.72;;;-4.10;99.90;;;;;;4973742;28;20031;-63
2023/12/04 02:12:34;;;;;;;19.60;6.93;;;-4.10;99.90;;;;;;4978980;28;20109;-61
2023/12/04 02:15:00;;;;;;;25.95;8.77;;;-4.10;99.90;;;;;;4988735;28;20041;-62
2023/12/04 02:17:27;;;;;;;20.42;7.63;;;-4.10;99.90;;;;;;4974248;28;20430;-61
2023/12/04 02:19:54;;;;;;;24.25;8.35;;;-4.10;99.90;;;;;;4983153;28;20046;-61
2023/12/04 02:22:19;;;;;;;24.42;8.52;;;-4.10;99.90;;;;;;4972064;28;20150;-62
2023/12/04 02:24:46;;;;;;;30.83;9.85;;;-4.10;99.90;;;;;;4971970;28;20474;-62
2023/12/04 02:27:26;;;;;;;26.63;8.90;;;-4.30;99.90;;;;;;4971201;28;20030;-63
2023/12/04 02:30:01;;;;;;;28.23;9.47;;;-4.50;99.90;;;;;;4972514;28;20031;-62
2023/12/04 02:32:33;;;;;;;31.10;10.52;;;-4.50;99.90;;;;;;4970856;28;20701;-61
2023/12/04 02:35:02;;;;;;;32.58;11.60;;;-4.50;99.90;;;;;;4971554;28;20026;-61
2023/12/04 02:37:28;;;;;;;30.42;10.07;;;-4.80;99.90;;;;;;4971477;28;20210;-62
2023/12/04 02:39:55;;;;;;;34.33;11.70;;;-4.90;99.90;;;;;;4986685;28;20122;-61
2023/12/04 02:42:21;;;;;;;29.90;10.68;;;-5.00;99.90;;;;;;4970772;28;20136;-62
2023/12/04 02:44:47;;;;;;;27.50;9.82;;;-5.00;99.90;;;;;;4971844;28;20139;-61
2023/12/04 02:47:13;;;;;;;27.83;9.77;;;-5.00;99.90;;;;;;4970881;28;20121;-62
2023/12/04 02:49:39;;;;;;;31.83;9.85;;;-5.00;99.90;;;;;;4966331;28;20472;-61
2023/12/04 02:52:04;;;;;;;31.38;10.43;;;-5.00;99.90;;;;;;4973908;28;20053;-61
2023/12/04 02:54:30;;;;;;;32.53;10.18;;;-5.00;99.90;;;;;;4970495;28;20612;-62
2023/12/04 02:56:56;;;;;;;27.77;8.73;;;-5.00;99.90;;;;;;4971536;28;20031;-61
2023/12/04 02:59:21;;;;;;;28.50;9.07;;;-5.00;99.90;;;;;;4970836;28;20074;-62
2023/12/04 03:01:47;;;;;;;23.88;8.93;;;-5.00;99.90;;;;;;4971518;28;20475;-61
2023/12/04 03:04:13;;;;;;;31.27;9.85;;;-4.90;99.90;;;;;;4970541;28;20034;-63
2023/12/04 03:06:38;;;;;;;28.35;8.85;;;-4.80;99.90;;;;;;4971184;28;20035;-61
2023/12/04 03:09:04;;;;;;;24.05;8.35;;;-4.90;99.90;;;;;;4975453;28;20113;-61
2023/12/04 03:11:30;;;;;;;26.20;9.77;;;-4.90;99.90;;;;;;4973642;28;20223;-61
2023/12/04 03:13:56;;;;;;;26.23;9.00;;;-4.80;99.90;;;;;;4970781;28;20468;-62
2023/12/04 03:16:22;;;;;;;28.33;8.27;;;-4.80;99.90;;;;;;4975953;28;20101;-61
2023/12/04 03:18:47;;;;;;;25.98;8.25;;;-4.70;99.90;;;;;;4985629;28;20073;-62
2023/12/04 03:21:13;;;;;;;21.73;7.45;;;-4.70;99.90;;;;;;4974279;28;20030;-63
2023/12/04 03:23:39;;;;;;;22.65;7.78;;;-4.70;99.90;;;;;;4973980;28;20051;-61
2023/12/04 03:26:05;;;;;;;21.63;7.50;;;-4.70;99.90;;;;;;4973458;28;20403;-62
2023/12/04 03:28:30;;;;;;;22.17;7.45;;;-4.60;99.90;;;;;;4973621;28;20038;-61
2023/12/04 03:30:56;;;;;;;27.42;7.85;;;-4.60;99.90;;;;;;4973514;28;20114;-61
2023/12/04 03:33:22;;;;;;;23.38;8.23;;;-4.60;99.90;;;;;;4972806;28;20066;-63
2023/12/04 03:35:48;;;;;;;21.23;7.28;;;-4.50;99.90;;;;;;4977682;28;20026;-62
2023/12/04 03:38:13;;;;;;;22.88;7.93;;;-4.50;99.90;;;;;;4972629;28;20031;-63
2023/12/04 03:40:39;;;;;;;20.63;7.45;;;-4.50;99.90;;;;;;4970211;28;20431;-61
2023/12/04 03:43:05;;;;;;;20.25;7.43;;;-4.50;99.90;;;;;;4971960;28;20039;-61
2023/12/04 03:45:30;;;;;;;23.05;7.97;;;-4.50;99.90;;;;;;4969560;28;20034;-61
2023/12/04 03:47:56;;;;;;;21.70;7.60;;;-4.60;99.90;;;;;;4970132;28;20087;-61
2023/12/04 03:50:21;;;;;;;24.25;7.90;;;-4.50;99.90;;;;;;4969327;28;20038;-61
2023/12/04 03:52:47;;;;;;;24.52;8.07;;;-4.60;99.90;;;;;;4970103;28;20114;-61
2023/12/04 03:55:13;;;;;;;25.25;8.18;;;-4.50;99.90;;;;;;4969146;28;20053;-62
2023/12/04 03:57:39;;;;;;;26.15;8.93;;;-4.50;99.90;;;;;;4952587;28;20050;-61
2023/12/04 04:00:05;;;;;;;25.40;8.68;;;-4.60;99.90;;;;;;4969045;28;20555;-61
2023/12/04 04:02:30;;;;;;;23.48;8.20;;;-4.70;99.90;;;;;;4968600;28;20097;-61
2023/12/04 04:04:56;;;;;;;24.15;8.00;;;-4.70;99.90;;;;;;4969694;28;20434;-61
2023/12/04 04:07:22;;;;;;;25.35;8.50;;;-4.80;99.90;;;;;;4968719;28;20027;-61
2023/12/04 04:09:47;;;;;;;24.30;8.93;;;-4.80;99.90;;;;;;4968741;28;20042;-61
2023/12/04 04:12:13;;;;;;;24.15;8.90;;;-4.80;99.90;;;;;;4969908;28;20038;-63
2023/12/04 04:14:39;;;;;;;20.63;7.80;;;-4.80;99.90;;;;;;4953585;28;20495;-62
2023/12/04 04:17:05;;;;;;;27.23;9.50;;;-4.90;99.90;;;;;;4969938;28;20035;-62
2023/12/04 04:19:30;;;;;;;33.80;9.63;;;-5.00;99.90;;;;;;4969300;28;20039;-61
2023/12/04 04:21:56;;;;;;;26.73;9.27;;;-5.00;99.90;;;;;;4969980;28;20041;-61
2023/12/04 04:24:21;;;;;;;30.30;10.35;;;-5.10;99.90;;;;;;4968938;28;20035;-61
2023/12/04 04:26:47;;;;;;;24.65;9.20;;;-5.10;99.90;;;;;;4964885;28;20030;-61
2023/12/04 04:29:13;;;;;;;28.40;9.80;;;-5.10;99.90;;;;;;4959796;28;20388;-61
2023/12/04 04:31:38;;;;;;;30.88;10.35;;;-5.20;99.90;;;;;;4950217;28;20036;-60
2023/12/04 04:34:04;;;;;;;34.95;11.02;;;-5.30;99.90;;;;;;4950779;29;20086;-61
2023/12/04 04:36:30;;;;;;;35.80;11.15;;;-5.40;99.90;;;;;;4955308;28;20445;-61
2023/12/04 04:38:55;;;;;;;35.70;11.48;;;-5.60;99.90;;;;;;4960365;28;20063;-61
2023/12/04 04:41:21;;;;;;;43.50;13.80;;;-5.60;99.90;;;;;;4961273;28;20133;-61
2023/12/04 04:43:46;;;;;;;37.28;12.30;;;-5.60;99.90;;;;;;4962678;28;20118;-61
2023/12/04 04:46:12;;;;;;;32.10;11.00;;;-5.60;99.90;;;;;;4960830;28;20039;-62
2023/12/04 04:48:38;;;;;;;34.38;10.95;;;-5.60;99.90;;;;;;4960464;28;20038;-61
2023/12/04 04:51:04;;;;;;;40.22;12.55;;;-5.50;99.90;;;;;;4957101;28;20415;-62
2023/12/04 04:53:32;;;;;;;36.80;11.32;;;-5.50;99.90;;;;;;4968871;28;20034;-61
2023/12/04 04:55:57;;;;;;;31.17;11.30;;;-5.50;99.90;;;;;;4953938;28;20385;-62
2023/12/04 04:58:23;;;;;;;34.10;10.95;;;-5.40;99.90;;;;;;4959321;28;20042;-62
2023/12/04 05:00:49;;;;;;;34.17;10.77;;;-5.40;99.90;;;;;;4946987;28;20055;-61
2023/12/04 05:03:15;;;;;;;33.97;11.23;;;-5.30;99.90;;;;;;4950017;29;20131;-61
2023/12/04 05:05:40;;;;;;;34.70;12.15;;;-5.40;99.90;;;;;;4949370;28;20082;-61
2023/12/04 05:08:06;;;;;;;35.38;12.43;;;-5.50;99.90;;;;;;4956583;28;20368;-62
2023/12/04 05:10:32;;;;;;;32.63;11.52;;;-5.50;99.90;;;;;;4944132;28;20638;-61
2023/12/04 05:12:57;;;;;;;32.55;11.65;;;-5.60;99.90;;;;;;4931312;29;20054;-62
2023/12/04 05:15:23;;;;;;;32.63;10.88;;;-5.60;99.90;;;;;;4934871;28;20031;-62
2023/12/04 05:17:48;;;;;;;37.97;11.02;;;-5.50;99.90;;;;;;4954558;28;20395;-61
2023/12/04 05:20:14;;;;;;;44.40;12.85;;;-5.50;99.90;;;;;;4958700;28;20715;-61
2023/12/04 05:22:40;;;;;;;33.88;11.52;;;-5.30;99.90;;;;;;4965922;28;20039;-61
2023/12/04 05:25:06;;;;;;;33.40;10.73;;;-5.20;99.90;;;;;;4967221;28;20059;-62
2023/12/04 05:27:32;;;;;;;40.75;12.23;;;-5.10;99.90;;;;;;4988058;28;20063;-61
2023/12/04 05:29:57;;;;;;;33.38;10.65;;;-5.00;99.90;;;;;;4976554;28;20209;-61
2023/12/04 05:32:23;;;;;;;27.95;9.95;;;-4.90;99.90;;;;;;4968075;28;20085;-62
2023/12/04 05:34:49;;;;;;;31.50;10.68;;;-4.90;99.90;;;;;;4946134;28;20031;-61
2023/12/04 05:37:14;;;;;;;32.03;10.93;;;-4.80;99.90;;;;;;4949956;28;20480;-61
2023/12/04 05:39:41;;;;;;;33.20;10.25;;;-4.80;99.90;;;;;;4952661;28;20023;-62
2023/12/04 05:42:06;;;;;;;33.85;10.27;;;-4.80;99.90;;;;;;4963929;28;20109;-61
2023/12/04 05:44:34;;;;;;;30.35;9.80;;;-4.80;99.90;;;;;;4971757;28;20696;-63
2023/12/04 05:47:00;;;;;;;25.88;9.32;;;-4.70;99.90;;;;;;4987253;28;20213;-61
2023/12/04 05:49:25;;;;;;;30.27;11.02;;;-4.70;99.90;;;;;;4972021;28;20105;-62
2023/12/04 05:51:51;;;;;;;23.98;9.38;;;-4.60;99.90;;;;;;4972829;28;20030;-61
2023/12/04 05:54:17;;;;;;;24.30;7.93;;;-4.60;99.90;;;;;;4971744;28;20038;-61
2023/12/04 05:56:42;;;;;;;22.85;7.80;;;-4.60;99.90;;;;;;4983929;28;20129;-61
2023/12/04 05:59:08;;;;;;;27.20;8.73;;;-4.60;99.90;;;;;;4987306;28;20031;-62
2023/12/04 06:01:34;;;;;;;25.13;8.75;;;-4.50;99.90;;;;;;4971545;28;20038;-61
2023/12/04 06:03:59;;;;;;;27.15;9.38;;;-4.50;99.90;;;;;;4971382;28;20034;-62
2023/12/04 06:06:25;;;;;;;26.58;9.40;;;-4.50;99.90;;;;;;4971302;28;20510;-62
2023/12/04 06:08:51;;;;;;;22.67;8.05;;;-4.50;99.90;;;;;;4971789;28;20138;-62
2023/12/04 06:11:16;;;;;;;22.63;8.38;;;-4.50;99.90;;;;;;4959457;28;20111;-62
2023/12/04 06:13:42;;;;;;;22.42;8.57;;;-4.40;99.90;;;;;;4971570;28;20031;-62
2023/12/04 06:16:08;;;;;;;25.95;8.95;;;-4.40;99.90;;;;;;4958959;28;20058;-62
2023/12/04 06:18:33;;;;;;;22.92;8.20;;;-4.40;99.90;;;;;;4971624;28;20365;-61
2023/12/04 06:20:59;;;;;;;18.77;7.60;;;-4.40;99.90;;;;;;4986839;28;20034;-61
2023/12/04 06:23:25;;;;;;;22.45;9.02;;;-4.40;99.90;;;;;;4970170;28;20050;-63
2023/12/04 06:25:51;;;;;;;23.77;8.00;;;-4.40;99.90;;;;;;4950526;28;20063;-61
2023/12/04 06:28:17;;;;;;;24.30;8.75;;;-4.40;99.90;;;;;;4971499;28;20506;-61
2023/12/04 06:30:43;;;;;;;25.80;8.75;;;-4.40;99.90;;;;;;4963866;28;20124;-62
2023/12/04 06:33:09;;;;;;;28.90;9.25;;;-4.40;99.90;;;;;;4954161;28;20454;-62
2023/12/04 06:35:35;;;;;;;24.55;9.63;;;-4.40;99.90;;;;;;4969826;28;20038;-61
2023/12/04 06:38:06;;;;;;;19.67;8.43;;;-4.40;99.90;;;;;;4971193;28;20034;-61
2023/12/04 06:40:33;;;;;;;30.90;8.93;;;-4.50;99.90;;;;;;4970381;28;20132;-61
2023/12/04 06:42:58;;;;;;;23.42;8.40;;;-4.50;99.90;;;;;;4971912;28;20043;-61
2023/12/04 06:45:25;;;;;;;26.10;8.43;;;-4.50;99.90;;;;;;4962081;28;20038;-63
2023/12/04 06:47:52;;;;;;;25.48;9.90;;;-4.50;99.90;;;;;;4971475;28;20042;-62
2023/12/04 06:50:17;;;;;;;27.25;10.15;;;-4.60;99.90;;;;;;4960916;28;20035;-61
2023/12/04 06:52:43;;;;;;;28.95;10.10;;;-4.70;99.90;;;;;;4963101;28;20101;-61
2023/12/04 06:55:09;;;;;;;26.90;9.82;;;-4.80;99.90;;;;;;4973948;28;20035;-62
2023/12/04 06:57:34;;;;;;;27.15;9.70;;;-4.80;99.90;;;;;;4971211;28;20089;-61
2023/12/04 07:00:00;;;;;;;30.75;10.95;;;-4.80;99.90;;;;;;4970448;28;20050;-61
2023/12/04 07:02:26;;;;;;;50.28;17.88;;;-4.80;99.90;;;;;;4970600;28;20043;-63
2023/12/04 07:04:51;;;;;;;27.42;10.88;;;-4.80;99.90;;;;;;4971626;28;20448;-61
2023/12/04 07:07:17;;;;;;;27.23;9.02;;;-4.70;99.90;;;;;;4970767;28;20081;-61
2023/12/04 07:09:43;;;;;;;23.75;8.48;;;-4.80;99.90;;;;;;4964806;28;20492;-61
2023/12/04 07:12:08;;;;;;;28.52;9.93;;;-4.80;99.90;;;;;;4967501;28;20081;-61
2023/12/04 07:14:34;;;;;;;25.85;8.75;;;-4.80;99.90;;;;;;4966115;28;20030;-61
2023/12/04 07:17:00;;;;;;;23.60;8.23;;;-4.80;99.90;;;;;;4970812;28;20042;-61
2023/12/04 07:19:26;;;;;;;25.40;8.68;;;-4.80;99.90;;;;;;4970089;28;20034;-63
2023/12/04 07:21:52;;;;;;;28.13;9.90;;;-4.80;99.90;;;;;;4970186;28;20026;-61
2023/12/04 07:24:18;;;;;;;27.63;9.43;;;-4.80;99.90;;;;;;4950900;28;20047;-61
2023/12/04 07:26:43;;;;;;;31.88;10.45;;;-4.80;99.90;;;;;;4968812;28;20121;-62
2023/12/04 07:29:09;;;;;;;31.55;10.68;;;-4.90;99.90;;;;;;4966749;28;20041;-62
2023/12/04 07:31:35;;;;;;;33.50;10.85;;;-5.00;99.90;;;;;;4958078;28;20106;-62
2023/12/04 07:34:01;;;;;;;32.42;11.57;;;-4.90;99.90;;;;;;4962781;28;20110;-63
2023/12/04 07:36:28;;;;;;;32.72;11.07;;;-4.80;99.90;;;;;;4961611;28;20034;-63
2023/12/04 07:38:53;;;;;;;31.55;11.45;;;-4.70;99.90;;;;;;4961132;28;20034;-63
2023/12/04 07:41:19;;;;;;;30.83;11.15;;;-4.70;99.90;;;;;;4960725;28;20031;-62
2023/12/04 07:43:45;;;;;;;30.42;11.60;;;-4.80;99.90;;;;;;4969336;28;20117;-62
2023/12/04 07:46:11;;;;;;;32.47;11.52;;;-4.80;99.90;;;;;;4960069;28;20158;-62
2023/12/04 07:48:37;;;;;;;35.45;11.68;;;-4.80;99.90;;;;;;4969358;28;20101;-62
2023/12/04 07:51:03;;;;;;;36.70;11.70;;;-4.80;99.90;;;;;;4969550;28;20030;-62
2023/12/04 07:53:29;;;;;;;31.60;10.80;;;-4.80;99.90;;;;;;4968749;28;20118;-64
2023/12/04 07:55:54;;;;;;;35.58;12.77;;;-4.80;99.90;;;;;;4968729;28;20893;-62
2023/12/04 07:58:20;;;;;;;30.90;11.55;;;-4.80;99.90;;;;;;4952717;28;20038;-62
2023/12/04 08:00:45;;;;;;;34.67;12.95;;;-4.90;99.90;;;;;;4969260;28;20027;-62
2023/12/04 08:03:11;;;;;;;38.72;13.07;;;-5.00;99.90;;;;;;4970093;28;20380;-61
2023/12/04 08:05:37;;;;;;;64.13;21.05;;;-5.00;99.90;;;;;;4969084;28;20084;-62
2023/12/04 08:08:03;;;;;;;44.55;15.40;;;-4.90;99.90;;;;;;4969352;28;20475;-60
2023/12/04 08:10:29;;;;;;;40.55;13.20;;;-5.00;99.90;;;;;;4968747;28;20054;-60
2023/12/04 08:12:54;;;;;;;42.72;15.00;;;-4.90;99.90;;;;;;4969469;28;20030;-60
2023/12/04 08:15:20;;;;;;;42.25;15.35;;;-4.90;99.90;;;;;;4967394;28;20093;-60
2023/12/04 08:17:45;;;;;;;40.40;14.50;;;-4.90;99.90;;;;;;4969099;28;20417;-61
2023/12/04 08:20:13;;;;;;;43.33;14.57;;;-4.80;99.90;;;;;;4973032;28;20387;-60
2023/12/04 08:22:41;;;;;;;38.42;13.07;;;-4.80;99.90;;;;;;4969427;28;20046;-61
2023/12/04 08:25:07;;;;;;;41.80;14.25;;;-4.80;99.90;;;;;;4960560;28;20061;-60
2023/12/04 08:27:33;;;;;;;45.80;14.55;;;-4.70;99.90;;;;;;4968641;28;20031;-61
2023/12/04 08:29:58;;;;;;;43.13;16.08;;;-4.60;99.90;;;;;;4962384;28;20035;-60
2023/12/04 08:32:26;;;;;;;41.45;14.60;;;-4.70;99.90;;;;;;4961741;28;20064;-60
2023/12/04 08:34:52;;;;;;;38.55;12.98;;;-4.70;99.90;;;;;;4969017;28;20041;-60
2023/12/04 08:37:18;;;;;;;39.78;13.20;;;-4.70;99.90;;;;;;4969328;28;20038;-60
2023/12/04 08:39:44;;;;;;;53.72;16.85;;;-4.70;99.90;;;;;;4969239;28;20023;-60
2023/12/04 08:42:11;;;;;;;45.50;14.90;;;-4.70;99.90;;;;;;4968632;28;20035;-60
2023/12/04 08:44:37;;;;;;;46.95;15.98;;;-4.70;99.90;;;;;;4969117;28;20038;-60
2023/12/04 08:47:03;;;;;;;43.13;15.18;;;-4.60;99.90;;;;;;4952312;28;20399;-61
2023/12/04 08:49:28;;;;;;;53.08;19.13;;;-4.60;99.90;;;;;;4969718;28;20045;-60
2023/12/04 08:51:54;;;;;;;43.03;13.82;;;-4.60;99.90;;;;;;4969223;28;20031;-60
2023/12/04 08:54:20;;;;;;;38.90;13.73;;;-4.60;99.90;;;;;;4952446;28;20688;-60
2023/12/04 08:56:45;;;;;;;43.30;13.13;;;-4.50;99.90;;;;;;4968816;28;20054;-60
2023/12/04 08:59:12;;;;;;;41.85;14.05;;;-4.50;99.90;;;;;;4969685;28;20117;-60
2023/12/04 09:01:39;;;;;;;43.40;16.83;;;-4.60;99.90;;;;;;4969022;28;20026;-60
2023/12/04 09:04:04;;;;;;;39.22;13.77;;;-4.60;99.90;;;;;;4969782;28;20054;-60
2023/12/04 09:06:30;;;;;;;41.70;14.57;;;-4.60;99.90;;;;;;4969027;28;20728;-61
2023/12/04 09:08:56;;;;;;;39.83;14.20;;;-4.60;99.90;;;;;;4969582;28;20054;-60
2023/12/04 09:11:21;;;;;;;39.03;15.20;;;-4.70;99.90;;;;;;4969637;28;20049;-60
2023/12/04 09:13:47;;;;;;;44.60;14.95;;;-4.70;99.90;;;;;;4971079;28;20503;-60
2023/12/04 09:16:13;;;;;;;40.33;15.05;;;-4.70;99.90;;;;;;4955856;28;20113;-60
2023/12/04 09:18:39;;;;;;;39.75;13.88;;;-4.70;99.90;;;;;;4972773;28;20030;-60
2023/12/04 09:21:05;;;;;;;45.28;15.10;;;-4.70;99.90;;;;;;4973111;28;20039;-60
2023/12/04 09:23:31;;;;;;;48.33;15.98;;;-4.60;99.90;;;;;;4972907;28;20043;-60
2023/12/04 09:25:56;;;;;;;51.25;15.75;;;-4.50;99.90;;;;;;4972297;28;20125;-60
2023/12/04 09:28:22;;;;;;;55.35;17.33;;;-4.50;99.90;;;;;;4973367;28;20534;-60
2023/12/04 09:30:48;;;;;;;53.65;16.92;;;-4.40;99.90;;;;;;4972482;28;20074;-61
2023/12/04 09:33:13;;;;;;;69.32;20.20;;;-4.40;99.90;;;;;;4973506;28;20038;-60
2023/12/04 09:35:39;;;;;;;50.45;17.02;;;-4.40;99.90;;;;;;4971927;28;20063;-61
2023/12/04 09:38:05;;;;;;;52.03;17.42;;;-4.30;99.90;;;;;;4973090;28;20031;-61
2023/12/04 09:40:30;;;;;;;57.75;19.65;;;-4.30;99.90;;;;;;4973012;28;20042;-60
2023/12/04 09:42:57;;;;;;;54.17;16.13;;;-4.20;99.90;;;;;;4971747;28;20392;-61
2023/12/04 09:45:24;;;;;;;51.47;16.27;;;-4.10;99.90;;;;;;4972704;28;20046;-61
2023/12/04 09:47:50;;;;;;;47.78;15.45;;;-4.10;99.90;;;;;;4971718;28;20118;-61
2023/12/04 09:50:20;;;;;;;50.20;16.70;;;-4.00;99.90;;;;;;4972985;28;20480;-61
2023/12/04 09:52:50;;;;;;;53.33;18.13;;;-3.90;99.90;;;;;;4972171;28;20122;-61
2023/12/04 09:55:16;;;;;;;59.92;19.25;;;-3.90;99.90;;;;;;4972532;28;20402;-60
2023/12/04 09:57:45;;;;;;;44.70;16.42;;;-3.90;99.90;;;;;;4971612;28;20031;-60
2023/12/04 10:00:12;;;;;;;46.42;15.48;;;-3.90;99.90;;;;;;4972721;28;20027;-61
2023/12/04 10:02:40;;;;;;;48.70;16.45;;;-3.80;99.90;;;;;;4971600;28;20480;-61
2023/12/04 10:05:06;;;;;;;41.80;15.25;;;-3.80;99.90;;;;;;4987642;28;20035;-61
2023/12/04 10:07:32;;;;;;;43.35;15.57;;;-3.70;99.90;;;;;;4972235;28;20766;-61
2023/12/04 10:09:58;;;;;;;44.45;15.85;;;-3.60;99.90;;;;;;4971893;28;20034;-61
2023/12/04 10:12:24;;;;;;;39.72;14.25;;;-3.50;99.90;;;;;;4972341;28;20057;-60
2023/12/04 10:15:11;;;;;;;35.42;13.60;;;-3.30;99.90;;;;;;4971598;28;20026;-61
2023/12/04 10:17:38;;;;;;;39.13;14.32;;;-3.20;99.90;;;;;;4971569;28;20086;-61
2023/12/04 10:20:18;;;;;;;35.58;13.45;;;-3.00;99.90;;;;;;4972406;28;20054;-60
2023/12/04 10:23:01;;;;;;;37.03;12.82;;;-2.90;99.90;;;;;;4970911;28;20035;-61
2023/12/04 10:25:29;;;;;;;36.35;12.93;;;-2.70;99.90;;;;;;4966327;28;20504;-61
2023/12/04 10:28:11;;;;;;;41.03;16.20;;;-2.60;99.90;;;;;;4979390;28;20036;-61
2023/12/04 10:30:37;;;;;;;43.08;15.50;;;-2.50;99.90;;;;;;4987075;28;20085;-62
2023/12/04 10:33:05;;;;;;;41.72;14.90;;;-2.30;99.90;;;;;;4977191;28;20045;-61
2023/12/04 10:35:32;;;;;;;42.25;14.90;;;-2.30;99.90;;;;;;4971776;28;20023;-61
2023/12/04 10:38:02;;;;;;;34.85;13.02;;;-2.30;99.90;;;;;;4962614;28;20041;-61
2023/12/04 10:40:32;;;;;;;37.83;13.10;;;-2.30;99.90;;;;;;4972010;28;20026;-60
2023/12/04 10:43:14;;;;;;;40.15;14.32;;;-2.30;99.90;;;;;;4971037;28;20043;-60
2023/12/04 10:45:41;;;;;;;33.83;12.32;;;-2.30;99.90;;;;;;4971184;28;20397;-61
2023/12/04 10:48:08;;;;;;;37.50;13.25;;;-2.30;99.90;;;;;;4971839;28;20042;-61
2023/12/04 10:50:35;;;;;;;35.78;13.02;;;-2.30;99.90;;;;;;4971770;28;20065;-61
2023/12/04 10:53:04;;;;;;;32.78;12.30;;;-2.10;99.90;;;;;;4970996;28;20030;-60
2023/12/04 10:55:31;;;;;;;35.53;12.23;;;-1.90;99.90;;;;;;4972193;28;20097;-60
2023/12/04 10:57:57;;;;;;;31.58;11.70;;;-1.70;99.90;;;;;;4970966;28;20031;-61
2023/12/04 11:00:24;;;;;;;30.92;11.95;;;-1.60;99.90;;;;;;4971656;28;20031;-61
2023/12/04 11:02:54;;;;;;;61.15;22.35;;;-1.60;99.90;;;;;;4951288;28;20046;-61
2023/12/04 11:05:22;;;;;;;31.58;12.48;;;-1.60;99.90;;;;;;4971619;28;20125;-61
2023/12/04 11:07:51;;;;;;;36.70;13.10;;;-1.50;99.90;;;;;;4970703;28;20043;-61
2023/12/04 11:10:18;;;;;;;34.10;13.73;;;-1.50;99.90;;;;;;4971467;28;20027;-61
2023/12/04 11:12:47;;;;;;;32.85;13.43;;;-1.40;99.90;;;;;;4969860;28;20105;-61
2023/12/04 11:15:17;;;;;;;37.75;14.25;;;-1.40;99.90;;;;;;4971667;28;20038;-61
2023/12/04 11:17:46;;;;;;;34.58;13.45;;;-1.60;99.90;;;;;;4970683;28;20023;-61
2023/12/04 11:20:16;;;;;;;34.78;12.68;;;-1.70;99.90;;;;;;4971065;28;20069;-61
2023/12/04 11:22:45;;;;;;;39.20;14.00;;;-1.70;99.90;;;;;;4969971;28;20039;-61
2023/12/04 11:25:13;;;;;;;35.78;13.60;;;-1.60;99.90;;;;;;4970951;28;20066;-61
2023/12/04 11:27:39;;;;;;;40.85;14.52;;;-1.40;99.90;;;;;;4965427;28;20496;-62
2023/12/04 11:30:06;;;;;;;40.60;14.90;;;-1.30;99.90;;;;;;4951845;29;20054;-61
2023/12/04 11:32:31;;;;;;;38.58;14.10;;;-1.10;99.90;;;;;;4951660;29;20042;-61
2023/12/04 11:35:02;;;;;;;52.20;19.10;;;-0.90;99.90;;;;;;4950721;29;20216;-61
2023/12/04 11:37:27;;;;;;;;;;;-0.90;99.90;;;;;;4952383;28;20042;-61
2023/12/04 11:39:54;;;;;;;60.75;19.55;;;-0.70;99.90;;;;;;4950891;28;20252;-61
2023/12/04 11:42:24;;;;;;;46.58;16.70;;;-0.70;99.90;;;;;;4951441;28;20066;-61
2023/12/04 11:44:55;;;;;;;44.20;16.35;;;-0.80;99.90;;;;;;4950881;29;20039;-61
2023/12/04 11:47:21;;;;;;;35.95;14.50;;;-0.90;99.90;;;;;;4950150;28;20452;-61
2023/12/04 11:49:47;;;;;;;40.58;15.65;;;-1.10;99.90;;;;;;4958742;28;20031;-61
2023/12/04 11:52:12;;;;;;;35.22;13.57;;;-1.20;99.90;;;;;;4951451;28;20490;-61
2023/12/04 11:55:00;;;;;;;45.28;17.10;;;-1.20;99.90;;;;;;4951536;28;20062;-61
2023/12/04 11:57:29;;;;;;;42.70;15.70;;;-1.30;99.90;;;;;;4951329;28;20111;-62
2023/12/04 12:00:18;;;;;;;52.47;18.58;;;-1.30;99.90;;;;;;4931378;29;20036;-61
2023/12/04 12:03:01;;;;;;;46.63;17.67;;;-1.40;99.90;;;;;;4922561;29;20084;-62
2023/12/04 12:05:27;;;;;;;43.45;16.35;;;-1.40;99.90;;;;;;4949660;28;20392;-61
2023/12/04 12:07:52;;;;;;;40.67;15.13;;;-1.30;99.90;;;;;;4953385;28;20031;-61
2023/12/04 12:10:18;;;;;;;38.25;14.48;;;-1.40;99.90;;;;;;4970433;28;20531;-61
2023/12/04 12:12:44;;;;;;;46.95;16.48;;;-1.30;99.90;;;;;;4965452;28;20530;-62
2023/12/04 12:15:11;;;;;;;48.67;17.02;;;-1.30;99.90;;;;;;4965277;28;20107;-61
2023/12/04 12:17:41;;;;;;;42.88;16.95;;;-1.20;99.90;;;;;;4970302;28;20080;-61
2023/12/04 12:20:12;;;;;;;39.45;15.15;;;-1.20;99.90;;;;;;4951993;28;20043;-61
2023/12/04 12:22:41;;;;;;;;;;;-1.30;99.90;;;;;;4951486;28;20055;-60
2023/12/04 12:25:16;;;;;;;44.30;16.05;;;-1.30;99.90;;;;;;4959598;28;19926;-61
2023/12/04 12:27:43;;;;;;;48.13;17.70;;;-1.30;99.90;;;;;;4969914;28;20043;-62